Terminal Aerodrome Forecast
Issued by NWS Billings, MT

Home | Current Version | Previous Version | Graphics & Text | Print | Product List | Glossary On
Versions: 1 2 3 4 5 6 7 8 9 10 11 12 13 14 15 16 17 18 19 20 21 22 23 24 25 26 27 28 29 30 31 32
673
FTUS45 KBYZ 230130 AAA
TAFMLS
TAF AMD
KMLS 230130Z 2302/2324 02007KT 6SM HZ SCT250
     FM230700 12007KT P6SM SKC
     FM231500 17012KT P6SM SKC=

USA.gov is the U.S. government's official web portal to all federal, state and local government web resources and services.